createdAt,value
2018-10-11T00:03:19.812Z,93.10
2018-10-11T00:05:49.219Z,93.20
2018-10-11T00:08:17.664Z,93.10
2018-10-11T00:10:46.188Z,93.20
2018-10-11T00:13:15.420Z,93.10
2018-10-11T00:15:43.899Z,93.20
2018-10-11T00:18:12.849Z,93.10
2018-10-11T00:20:41.333Z,92.90
2018-10-11T00:23:11.958Z,93.30
2018-10-11T00:25:40.463Z,93.00
2018-10-11T00:28:08.871Z,93.00
2018-10-11T00:30:37.885Z,93.00
2018-10-11T00:33:07.561Z,92.80
2018-10-11T00:35:36.728Z,92.70
2018-10-11T00:38:05.500Z,92.30
2018-10-11T00:40:33.979Z,92.50
2018-10-11T00:43:02.421Z,92.80
2018-10-11T00:45:30.928Z,92.90
2018-10-11T00:47:59.348Z,92.80
2018-10-11T00:50:27.947Z,93.00
2018-10-11T00:52:56.388Z,93.10
2018-10-11T00:55:25.120Z,93.10
2018-10-11T00:57:53.537Z,93.00
2018-10-11T01:00:22.516Z,93.00
2018-10-11T01:02:50.949Z,92.80
2018-10-11T01:05:19.462Z,92.70
2018-10-11T01:07:48.356Z,93.10
2018-10-11T01:12:53.268Z,93.30
2018-10-11T01:15:22.165Z,93.70
2018-10-11T01:17:51.617Z,93.20
2018-10-11T01:20:20.137Z,92.80
2018-10-11T01:22:49.491Z,92.40
2018-10-11T01:25:18.256Z,92.30
2018-10-11T01:27:46.712Z,92.10
2018-10-11T01:30:15.209Z,92.20
2018-10-11T01:32:43.738Z,92.50
2018-10-11T01:35:12.252Z,92.70
2018-10-11T01:37:40.811Z,93.10
2018-10-11T01:40:09.705Z,92.80
2018-10-11T01:42:38.243Z,92.80
2018-10-11T01:45:09.417Z,92.80
2018-10-11T01:47:38.135Z,92.70
2018-10-11T01:50:06.926Z,92.80
2018-10-11T01:52:35.368Z,92.70
2018-10-11T01:55:03.845Z,93.00
2018-10-11T01:57:32.396Z,93.00
2018-10-11T02:00:02.753Z,93.30
2018-10-11T02:02:31.227Z,93.30
2018-10-11T02:04:59.743Z,93.10
2018-10-11T02:07:28.564Z,93.00
2018-10-11T02:09:57.024Z,93.00
2018-10-11T02:12:25.519Z,93.00
2018-10-11T02:14:54.134Z,92.80
2018-10-11T02:20:05.613Z,92.20
2018-10-11T02:22:34.194Z,92.10
2018-10-11T02:25:02.747Z,92.30
2018-10-11T02:27:31.205Z,92.50
2018-10-11T02:30:00.436Z,92.50
2018-10-11T02:32:29.200Z,92.30
2018-10-11T02:34:58.083Z,92.40
2018-10-11T02:37:27.036Z,92.70
2018-10-11T02:39:56.154Z,93.10
2018-10-11T02:42:26.380Z,92.60
2018-10-11T02:44:55.744Z,92.60
2018-10-11T02:47:24.326Z,92.90
2018-10-11T02:49:52.873Z,93.30
2018-10-11T02:52:21.342Z,93.30
2018-10-11T02:54:50.624Z,93.20
2018-10-11T02:59:39.147Z,93.00
2018-10-11T03:02:12.857Z,93.00
2018-10-11T03:04:42.628Z,93.00
2018-10-11T03:07:12.052Z,93.30
2018-10-11T03:09:42.251Z,93.60
2018-10-11T03:12:10.923Z,93.80
2018-10-11T03:14:39.612Z,93.70
2018-10-11T03:17:08.246Z,93.40
2018-10-11T03:19:36.785Z,93.20
2018-10-11T03:24:42.188Z,93.10
2018-10-11T03:27:13.501Z,93.80
2018-10-11T03:29:42.315Z,93.60
2018-10-11T03:32:10.818Z,93.70
2018-10-11T03:34:39.801Z,93.50
2018-10-11T03:37:08.334Z,93.90
2018-10-11T03:39:37.338Z,94.00
2018-10-11T03:42:05.858Z,93.80
2018-10-11T03:44:34.493Z,93.70
2018-10-11T03:47:03.097Z,93.60
2018-10-11T03:49:31.655Z,93.80
2018-10-11T03:52:00.084Z,94.50
2018-10-11T03:54:29.936Z,94.50
2018-10-11T03:57:00.396Z,94.50
2018-10-11T03:59:28.916Z,94.40
2018-10-11T04:01:57.646Z,94.20
2018-10-11T04:04:27.829Z,94.00
2018-10-11T04:06:56.324Z,94.00
2018-10-11T04:09:24.852Z,94.20
2018-10-11T04:11:53.642Z,94.40
2018-10-11T04:14:22.148Z,94.40
2018-10-11T04:16:50.707Z,94.30
2018-10-11T04:19:19.253Z,94.00
2018-10-11T04:21:47.712Z,93.80
2018-10-11T04:24:16.159Z,93.60
2018-10-11T04:26:45.045Z,92.90
2018-10-11T04:29:13.632Z,93.50
2018-10-11T04:31:42.162Z,93.80
2018-10-11T04:34:10.591Z,93.90
2018-10-11T04:36:39.089Z,93.50
2018-10-11T04:39:10.120Z,93.30
2018-10-11T04:41:38.848Z,93.30
2018-10-11T04:44:07.363Z,93.10
2018-10-11T04:46:35.898Z,93.10
2018-10-11T04:49:04.431Z,93.40
2018-10-11T04:51:33.399Z,93.30
2018-10-11T04:54:01.840Z,93.30
2018-10-11T04:56:30.346Z,92.80
2018-10-11T04:58:59.136Z,92.70
2018-10-11T05:04:07.833Z,92.50
2018-10-11T05:06:36.041Z,92.50
2018-10-11T05:09:05.007Z,92.50
2018-10-11T05:11:33.247Z,92.70
2018-10-11T05:14:01.521Z,93.20
2018-10-11T05:16:30.044Z,93.60
2018-10-11T05:19:01.091Z,93.30
2018-10-11T05:21:29.712Z,93.20
2018-10-11T05:23:58.155Z,92.90
2018-10-11T05:26:26.759Z,92.80
2018-10-11T05:28:55.307Z,93.00
2018-10-11T05:31:24.213Z,93.10
2018-10-11T05:33:53.787Z,93.00
2018-10-11T05:36:22.324Z,93.00
2018-10-11T05:38:50.892Z,93.00
2018-10-11T05:41:20.042Z,92.70
2018-10-11T05:43:48.608Z,92.70
2018-10-11T05:46:26.936Z,92.70
2018-10-11T05:48:56.416Z,92.50
2018-10-11T05:51:25.671Z,92.00
2018-10-11T05:53:55.461Z,91.20
2018-10-11T05:56:24.294Z,91.00
2018-10-11T05:58:53.115Z,90.30
2018-10-11T06:01:22.088Z,89.00
2018-10-11T06:03:50.588Z,87.70
2018-10-11T06:06:19.073Z,82.20
2018-10-11T06:08:47.544Z,77.50
2018-10-11T06:11:16.386Z,72.40
2018-10-11T06:13:46.242Z,66.80
2018-10-11T06:16:15.065Z,61.80
2018-10-11T06:18:44.108Z,59.80
2018-10-11T06:21:13.272Z,58.30
2018-10-11T06:23:41.869Z,56.70
2018-10-11T06:26:10.596Z,54.00
2018-10-11T06:28:39.033Z,52.50
2018-10-11T06:31:07.524Z,49.80
2018-10-11T06:33:36.141Z,46.60
2018-10-11T06:36:05.928Z,45.50
2018-10-11T06:38:34.663Z,43.90
2018-10-11T06:41:03.052Z,40.70
2018-10-11T06:43:32.461Z,40.30
2018-10-11T06:46:02.156Z,39.80
2018-10-11T06:48:30.544Z,39.10
2018-10-11T06:50:58.888Z,38.20
2018-10-11T06:53:27.288Z,37.20
2018-10-11T06:55:56.136Z,36.10
2018-10-11T06:58:24.472Z,35.10
2018-10-11T07:00:52.883Z,34.50
2018-10-11T07:03:21.364Z,34.00
2018-10-11T07:05:49.745Z,33.30
2018-10-11T07:08:18.124Z,33.10
2018-10-11T07:10:46.664Z,32.50
2018-10-11T07:13:14.977Z,30.70
2018-10-11T07:15:44.440Z,30.70
2018-10-11T07:18:13.112Z,29.90
2018-10-11T07:20:41.492Z,28.90
2018-10-11T07:23:09.836Z,29.20
2018-10-11T07:25:38.231Z,29.30
2018-10-11T07:28:06.942Z,28.50
2018-10-11T07:30:35.544Z,27.80
2018-10-11T07:33:03.956Z,27.30
2018-10-11T07:35:32.430Z,27.10
2018-10-11T07:40:39.118Z,26.80
2018-10-11T07:43:07.793Z,26.10
2018-10-11T07:45:36.177Z,25.30
2018-10-11T07:48:04.596Z,25.50
2018-10-11T07:50:32.993Z,25.00
2018-10-11T07:53:01.776Z,25.10
2018-10-11T07:55:30.168Z,24.70
2018-10-11T07:57:58.606Z,24.10
2018-10-11T08:00:27.206Z,23.70
2018-10-11T08:02:55.653Z,22.90
2018-10-11T08:05:24.412Z,23.30
2018-10-11T08:07:52.884Z,23.20
2018-10-11T08:10:21.259Z,22.70
2018-10-11T08:12:49.584Z,22.50
2018-10-11T08:15:18.884Z,21.90
2018-10-11T08:17:47.840Z,21.80
2018-10-11T08:20:15.996Z,23.20
2018-10-11T08:22:44.323Z,24.30
2018-10-11T08:25:13.418Z,24.40
2018-10-11T08:27:41.756Z,22.90
2018-10-11T08:30:12.196Z,23.40
2018-10-11T08:32:40.800Z,23.90
2018-10-11T08:35:09.176Z,24.20
2018-10-11T08:37:37.716Z,23.50
2018-10-11T08:40:06.168Z,24.60
2018-10-11T08:42:35.591Z,23.90
2018-10-11T08:45:04.058Z,24.20
2018-10-11T08:47:32.561Z,23.10
2018-10-11T08:50:00.945Z,22.80
2018-10-11T08:52:29.389Z,22.70
2018-10-11T08:54:57.832Z,22.30
2018-10-11T08:57:26.380Z,23.30
2018-10-11T08:59:54.749Z,22.00
2018-10-11T09:02:24.769Z,21.30
2018-10-11T09:04:53.260Z,21.30
2018-10-11T09:07:21.724Z,21.00
2018-10-11T09:09:53.634Z,21.10
2018-10-11T09:12:18.817Z,20.80
2018-10-11T09:14:47.245Z,20.40
2018-10-11T09:17:15.831Z,21.10
2018-10-11T09:19:44.170Z,21.10
2018-10-11T09:22:12.915Z,21.00
2018-10-11T09:24:48.524Z,20.50
2018-10-11T09:27:17.200Z,20.50
2018-10-11T09:29:45.560Z,20.80
2018-10-11T09:32:14.957Z,21.60
2018-10-11T09:34:43.648Z,21.40
2018-10-11T09:37:12.098Z,20.80
2018-10-11T09:39:40.456Z,21.00
2018-10-11T09:42:08.911Z,21.00
2018-10-11T09:44:37.352Z,21.00
2018-10-11T09:47:05.904Z,20.50
2018-10-11T09:49:34.781Z,21.00
2018-10-11T09:52:03.666Z,21.20
2018-10-11T09:54:32.931Z,21.50
2018-10-11T09:57:21.350Z,21.70
2018-10-11T09:59:49.811Z,22.10
2018-10-11T10:02:18.197Z,21.90
2018-10-11T10:04:48.789Z,22.50
2018-10-11T10:07:17.688Z,22.20
2018-10-11T10:09:46.737Z,22.30
2018-10-11T10:12:15.592Z,23.10
2018-10-11T10:14:44.725Z,24.20
2018-10-11T10:19:53.681Z,24.10
2018-10-11T10:22:24.463Z,24.60
2018-10-11T10:24:53.215Z,25.30
2018-10-11T10:27:21.790Z,24.00
2018-10-11T10:29:50.160Z,22.60
2018-10-11T10:32:19.108Z,22.80
2018-10-11T10:34:47.589Z,23.00
2018-10-11T10:37:16.965Z,22.90
2018-10-11T10:39:45.439Z,23.60
2018-10-11T10:42:13.911Z,25.40
2018-10-11T10:44:42.358Z,27.10
2018-10-11T10:47:11.429Z,25.40
2018-10-11T10:49:40.292Z,26.70
2018-10-11T10:52:08.881Z,27.10
2018-10-11T10:54:37.940Z,27.60
2018-10-11T10:57:06.825Z,26.50
2018-10-11T10:59:35.277Z,27.10
2018-10-11T11:02:03.688Z,27.90
2018-10-11T11:04:32.231Z,28.80
2018-10-11T11:07:00.754Z,28.20
2018-10-11T11:09:29.170Z,28.30
2018-10-11T11:11:57.925Z,28.10
2018-10-11T11:14:26.351Z,28.30
2018-10-11T11:16:54.759Z,27.10
2018-10-11T11:19:23.429Z,26.00
2018-10-11T11:21:51.774Z,26.40
2018-10-11T11:24:20.153Z,27.30
2018-10-11T11:26:48.812Z,27.50
2018-10-11T11:29:18.019Z,27.10
2018-10-11T11:31:46.384Z,26.70
2018-10-11T11:34:14.836Z,26.80
2018-10-11T11:36:43.645Z,27.40
2018-10-11T11:39:12.505Z,28.10
2018-10-11T11:41:40.880Z,28.40
2018-10-11T11:44:09.354Z,28.50
2018-10-11T11:46:37.757Z,29.60
2018-10-11T11:49:06.207Z,29.40
2018-10-11T11:51:34.795Z,29.10
2018-10-11T11:54:03.149Z,29.70
2018-10-11T11:56:31.597Z,29.80
2018-10-11T11:58:59.972Z,30.20
2018-10-11T12:01:28.381Z,30.60
2018-10-11T12:03:57.011Z,30.90
2018-10-11T12:06:25.541Z,30.50
2018-10-11T12:08:54.233Z,30.30
2018-10-11T12:11:23.200Z,30.10
2018-10-11T12:13:51.618Z,30.10
2018-10-11T12:16:20.010Z,30.60
2018-10-11T12:18:48.574Z,30.40
2018-10-11T12:21:16.946Z,30.60
2018-10-11T12:23:45.376Z,31.10
2018-10-11T12:26:14.317Z,30.90
2018-10-11T12:28:42.928Z,30.90
2018-10-11T12:31:11.589Z,30.60
2018-10-11T12:33:39.976Z,31.90
2018-10-11T12:36:12.293Z,31.40
2018-10-11T12:38:40.974Z,31.60
2018-10-11T12:41:09.390Z,32.20
2018-10-11T12:43:39.000Z,32.10
2018-10-11T12:46:08.350Z,31.60
2018-10-11T12:48:36.758Z,31.80
2018-10-11T12:51:05.270Z,32.20
2018-10-11T12:53:34.766Z,32.60
2018-10-11T12:56:03.158Z,31.50
2018-10-11T12:58:31.517Z,31.80
2018-10-11T13:01:00.020Z,32.50
2018-10-11T13:03:28.951Z,32.80
2018-10-11T13:05:57.412Z,32.40
2018-10-11T13:08:26.088Z,30.40
2018-10-11T13:10:55.558Z,30.80
2018-10-11T13:13:23.957Z,33.70
2018-10-11T13:15:52.480Z,34.80
2018-10-11T13:18:21.106Z,35.10
2018-10-11T13:20:49.491Z,35.30
2018-10-11T13:23:18.710Z,36.00
2018-10-11T13:25:46.331Z,36.10
2018-10-11T13:28:16.688Z,35.90
2018-10-11T13:33:20.513Z,36.20
2018-10-11T13:35:48.904Z,36.10
2018-10-11T13:38:17.728Z,36.60
2018-10-11T13:40:47.069Z,37.00
2018-10-11T13:43:15.562Z,37.20
2018-10-11T13:45:44.372Z,36.40
2018-10-11T13:48:12.840Z,37.10
2018-10-11T13:50:41.322Z,37.50
2018-10-11T13:53:13.126Z,37.60
2018-10-11T13:55:39.108Z,37.60
2018-10-11T13:58:08.192Z,38.30
2018-10-11T14:00:42.040Z,38.10
2018-10-11T14:03:10.480Z,39.00
2018-10-11T14:05:38.960Z,38.50
2018-10-11T14:08:22.138Z,39.20
2018-10-11T14:10:53.305Z,39.10
2018-10-11T14:13:22.031Z,38.80
2018-10-11T14:15:50.431Z,39.50
2018-10-11T14:18:19.149Z,39.40
2018-10-11T14:20:48.028Z,38.30
2018-10-11T14:23:18.100Z,39.00
2018-10-11T14:25:46.583Z,39.40
2018-10-11T14:28:14.973Z,39.20
2018-10-11T14:30:44.384Z,39.50
2018-10-11T14:33:12.802Z,39.50
2018-10-11T14:35:45.184Z,39.70
2018-10-11T14:38:13.693Z,39.70
2018-10-11T14:40:42.384Z,39.80
2018-10-11T14:43:11.016Z,40.20
2018-10-11T14:45:39.659Z,40.10
2018-10-11T14:48:08.116Z,40.80
2018-10-11T14:50:37.708Z,41.20
2018-10-11T14:53:06.184Z,41.20
2018-10-11T14:55:35.460Z,40.70
2018-10-11T14:58:04.060Z,40.30
2018-10-11T15:00:32.661Z,40.60
2018-10-11T15:03:01.128Z,41.50
2018-10-11T15:05:29.555Z,41.00
2018-10-11T15:07:58.641Z,41.40
2018-10-11T15:10:27.189Z,41.40
2018-10-11T15:12:56.119Z,41.60
2018-10-11T15:15:24.245Z,41.90
2018-10-11T15:17:54.636Z,41.80
2018-10-11T15:20:23.092Z,41.10
2018-10-11T15:22:51.799Z,41.60
2018-10-11T15:25:20.561Z,42.00
2018-10-11T15:27:49.367Z,42.00
2018-10-11T15:30:17.798Z,42.50
2018-10-11T15:32:46.241Z,43.30
2018-10-11T15:35:15.314Z,43.60
2018-10-11T15:37:43.820Z,43.70
2018-10-11T15:40:12.371Z,44.70
2018-10-11T15:42:41.368Z,46.30
2018-10-11T15:45:09.860Z,46.60
2018-10-11T15:47:38.541Z,47.70
2018-10-11T15:50:07.160Z,48.70
2018-10-11T15:52:36.402Z,50.10
2018-10-11T15:55:05.484Z,50.40
2018-10-11T15:57:33.940Z,51.00
2018-10-11T16:00:02.398Z,51.70
2018-10-11T16:02:31.212Z,52.20
2018-10-11T16:05:01.893Z,52.90
2018-10-11T16:07:30.387Z,53.40
2018-10-11T16:09:59.606Z,54.10
2018-10-11T16:12:28.121Z,54.70
2018-10-11T16:14:56.569Z,55.20
2018-10-11T16:17:26.885Z,56.00
2018-10-11T16:19:56.705Z,56.80
2018-10-11T16:22:25.816Z,57.40
2018-10-11T16:24:54.293Z,58.10
2018-10-11T16:27:24.741Z,59.10
2018-10-11T16:29:53.231Z,59.30
2018-10-11T16:32:22.075Z,60.00
2018-10-11T16:34:50.649Z,60.30
2018-10-11T16:37:19.788Z,60.60
2018-10-11T16:39:48.485Z,61.10
2018-10-11T16:42:17.141Z,61.80
2018-10-11T16:44:45.797Z,62.90
2018-10-11T16:47:14.268Z,63.20
2018-10-11T16:49:42.855Z,63.50
2018-10-11T16:52:11.629Z,63.90
2018-10-11T16:54:42.839Z,64.10
2018-10-11T16:59:51.644Z,65.10
2018-10-11T17:02:20.123Z,65.50
2018-10-11T17:04:49.569Z,65.90
2018-10-11T17:07:18.036Z,66.00
2018-10-11T17:09:46.771Z,66.10
2018-10-11T17:12:15.157Z,66.10
2018-10-11T17:14:44.592Z,66.30
2018-10-11T17:17:13.824Z,66.40
2018-10-11T17:19:42.264Z,66.70
2018-10-11T17:22:10.793Z,67.20
2018-10-11T17:24:39.485Z,67.50
2018-10-11T17:27:08.172Z,68.00
2018-10-11T17:29:36.860Z,68.10
2018-10-11T17:32:05.495Z,68.30
2018-10-11T17:34:34.497Z,69.00
2018-10-11T17:37:02.936Z,69.40
2018-10-11T17:39:33.309Z,69.50
2018-10-11T17:42:01.788Z,69.50
2018-10-11T17:44:30.213Z,69.90
2018-10-11T17:46:58.593Z,69.90
2018-10-11T17:49:27.552Z,70.50
2018-10-11T17:51:55.980Z,71.20
2018-10-11T17:54:24.457Z,70.80
2018-10-11T17:59:30.072Z,71.20
2018-10-11T18:01:58.576Z,71.20
2018-10-11T18:04:26.964Z,71.40
2018-10-11T18:06:56.421Z,71.40
2018-10-11T18:09:25.330Z,72.00
2018-10-11T18:11:53.941Z,71.90
2018-10-11T18:14:22.395Z,72.10
2018-10-11T18:16:51.632Z,72.20
2018-10-11T18:19:20.526Z,72.20
2018-10-11T18:21:49.106Z,72.50
2018-10-11T18:24:17.516Z,72.90
2018-10-11T18:26:47.816Z,73.10
2018-10-11T18:29:16.325Z,73.10
2018-10-11T18:31:44.787Z,73.50
2018-10-11T18:34:13.381Z,73.70
2018-10-11T18:36:42.681Z,73.80
2018-10-11T18:39:15.521Z,74.30
2018-10-11T18:41:44.202Z,74.30
2018-10-11T18:44:12.995Z,74.40
2018-10-11T18:46:41.412Z,74.90
2018-10-11T18:49:10.836Z,74.90
2018-10-11T18:51:39.268Z,74.70
2018-10-11T18:54:07.868Z,74.80
2018-10-11T18:56:36.341Z,75.10
2018-10-11T18:59:04.796Z,75.30
2018-10-11T19:01:33.296Z,75.30
2018-10-11T19:04:01.780Z,75.00
2018-10-11T19:06:31.165Z,75.60
2018-10-11T19:08:59.651Z,76.00
2018-10-11T19:11:28.027Z,76.20
2018-10-11T19:13:56.443Z,76.00
2018-10-11T19:16:24.920Z,76.50
2018-10-11T19:18:53.588Z,76.60
2018-10-11T19:21:22.640Z,76.70
2018-10-11T19:23:51.015Z,76.50
2018-10-11T19:26:19.474Z,76.70
2018-10-11T19:28:47.928Z,77.10
2018-10-11T19:31:16.381Z,76.90
2018-10-11T19:33:44.832Z,76.90
2018-10-11T19:36:13.782Z,76.70
2018-10-11T19:38:42.532Z,77.20
2018-10-11T19:41:11.317Z,78.50
2018-10-11T19:43:39.748Z,77.90
2018-10-11T19:46:08.202Z,77.80
2018-10-11T19:48:36.636Z,78.10
2018-10-11T19:51:05.399Z,78.50
2018-10-11T19:53:34.008Z,79.10
2018-10-11T19:56:02.478Z,79.70
2018-10-11T19:58:31.176Z,79.70
2018-10-11T20:00:59.937Z,79.00
2018-10-11T20:03:28.361Z,78.70
2018-10-11T20:05:57.073Z,78.60
2018-10-11T20:08:25.473Z,79.40
2018-10-11T20:10:54.280Z,79.20
2018-10-11T20:13:23.627Z,79.90
2018-10-11T20:15:52.473Z,79.40
2018-10-11T20:18:23.073Z,79.50
2018-10-11T20:20:51.766Z,80.20
2018-10-11T20:23:20.452Z,80.10
2018-10-11T20:25:48.993Z,80.00
2018-10-11T20:28:17.593Z,80.40
2018-10-11T20:30:46.001Z,80.40
2018-10-11T20:33:14.708Z,81.00
2018-10-11T20:35:43.112Z,80.80
2018-10-11T20:38:11.466Z,81.00
2018-10-11T20:40:40.316Z,80.90
2018-10-11T20:43:08.772Z,80.70
2018-10-11T20:45:37.296Z,80.70
2018-10-11T20:48:05.684Z,80.80
2018-10-11T20:50:34.317Z,80.50
2018-10-11T20:53:02.744Z,81.10
2018-10-11T20:55:32.085Z,81.50
2018-10-11T20:58:00.697Z,82.50
2018-10-11T21:00:29.905Z,82.20
2018-10-11T21:02:59.312Z,82.90
2018-10-11T21:05:27.724Z,82.80
2018-10-11T21:07:56.260Z,82.20
2018-10-11T21:10:25.091Z,81.90
2018-10-11T21:12:53.524Z,81.70
2018-10-11T21:15:22.417Z,81.90
2018-10-11T21:17:51.577Z,82.00
2018-10-11T21:20:20.233Z,82.90
2018-10-11T21:22:48.848Z,82.60
2018-10-11T21:25:17.588Z,83.10
2018-10-11T21:27:46.032Z,82.90
2018-10-11T21:30:14.428Z,82.80
2018-10-11T21:32:42.840Z,82.20
2018-10-11T21:35:11.379Z,83.20
2018-10-11T21:37:40.483Z,83.30
2018-10-11T21:40:09.013Z,83.10
2018-10-11T21:42:38.147Z,82.90
2018-10-11T21:45:07.121Z,83.40
2018-10-11T21:47:35.600Z,83.50
2018-10-11T21:50:04.148Z,83.50
2018-10-11T21:52:32.688Z,83.30
2018-10-11T21:55:01.032Z,83.60
2018-10-11T21:57:33.308Z,84.40
2018-10-11T22:00:01.737Z,83.50
2018-10-11T22:02:30.256Z,83.80
2018-10-11T22:04:58.908Z,83.90
2018-10-11T22:07:27.725Z,83.50
2018-10-11T22:09:56.129Z,84.30
2018-10-11T22:12:24.580Z,83.60
2018-10-11T22:14:55.102Z,83.50
2018-10-11T22:17:24.265Z,83.70
2018-10-11T22:19:53.007Z,84.40
2018-10-11T22:22:22.747Z,84.50
2018-10-11T22:24:51.148Z,84.20
2018-10-11T22:29:58.981Z,84.50
2018-10-11T22:32:27.376Z,84.20
2018-10-11T22:34:56.115Z,84.00
2018-10-11T22:37:24.592Z,84.50
2018-10-11T22:39:53.378Z,85.00
2018-10-11T22:42:22.020Z,86.10
2018-10-11T22:44:50.518Z,85.40
2018-10-11T22:47:22.803Z,85.10
2018-10-11T22:49:51.262Z,86.20
2018-10-11T22:52:19.741Z,86.50
2018-10-11T22:54:48.180Z,86.30
2018-10-11T22:57:16.944Z,86.00
2018-10-11T23:02:24.925Z,85.10
2018-10-11T23:04:53.549Z,85.00
2018-10-11T23:07:21.973Z,85.10
2018-10-11T23:12:27.084Z,85.20
2018-10-11T23:14:55.574Z,85.80
2018-10-11T23:17:25.281Z,85.70
2018-10-11T23:19:54.224Z,86.20
2018-10-11T23:22:23.276Z,86.30
2018-10-11T23:24:51.813Z,86.20
2018-10-11T23:27:20.264Z,86.30
2018-10-11T23:29:49.042Z,85.60
2018-10-11T23:32:17.484Z,85.50
2018-10-11T23:34:45.870Z,86.10
2018-10-11T23:37:14.559Z,86.70
2018-10-11T23:39:43.133Z,86.80
2018-10-11T23:42:11.552Z,86.50
2018-10-11T23:44:41.049Z,86.40
2018-10-11T23:47:09.746Z,86.40
2018-10-11T23:49:38.240Z,86.30
2018-10-11T23:52:06.807Z,86.30
2018-10-11T23:54:43.240Z,86.40
2018-10-11T23:57:14.720Z,86.80
2018-10-11T23:59:43.190Z,87.00
